FZDJ weather

Mutena Airport
Mutena, Kasai-Occidental Province, Congo (Kinshasa)

Public forecast

Using degrees Celsius for public forecast. Weather courtesy of forecast.io.

METAR (pilot weather report)

Report is more than 6 hours old.

Closest report is Dundo Airport, 42.9 nm (79.4 km) SSW. Retrieved 2019/04/19 11:00 UTC (21 hours ago):

FNDU 191100Z 05007KT 9999 FEW030 SCT033 31/19 Q1017

TAF (pilot weather forecast)

Forecast is more than 12 hours old.

Closest forecast is Dundo Airport, 42.9 nm (79.4 km) SSW. Retrieved 2019/04/19 00:00 UTC (1 day ago):

TAF FNDU 192300Z 2000/2012 12006KT 9999 SCT025